Time;durP1;ratioP1;P1;durP2;ratioP2;P2;SDS_P1;SDS_P2;PMS_P1;PMS_P2;Temp;Humidity;BMP_temperature;BMP_pressure;BME280_temperature;BME280_humidity;BME280_pressure;Samples;Min_cycle;Max_cycle;Signal;HPM_P1;HPM_P2
2020/03/08 00:02:05;;;;;;;7.9;4.8;;;;;;;;;;;;;
2020/03/08 00:04:30;;;;;;;9;4.7;;;;;;;;;;;;;
2020/03/08 00:06:55;;;;;;;6.8;4.8;;;;;;;;;;;;;
2020/03/08 00:09:20;;;;;;;7;4.6;;;;;;;;;;;;;
2020/03/08 00:11:45;;;;;;;6.5;4.2;;;;;;;;;;;;;
2020/03/08 00:14:10;;;;;;;7.6;4.6;;;;;;;;;;;;;
2020/03/08 00:16:35;;;;;;;7.4;4.7;;;;;;;;;;;;;
2020/03/08 00:19:00;;;;;;;7.3;4.3;;;;;;;;;;;;;
2020/03/08 00:21:25;;;;;;;6.7;4.6;;;;;;;;;;;;;
2020/03/08 00:23:51;;;;;;;7.2;4.9;;;;;;;;;;;;;
2020/03/08 00:26:16;;;;;;;7.2;4.6;;;;;;;;;;;;;
2020/03/08 00:28:41;;;;;;;8.5;4.8;;;;;;;;;;;;;
2020/03/08 00:31:06;;;;;;;8.1;4.3;;;;;;;;;;;;;
2020/03/08 00:33:31;;;;;;;6.8;4.5;;;;;;;;;;;;;
2020/03/08 00:35:56;;;;;;;6.5;4.2;;;;;;;;;;;;;
2020/03/08 00:38:21;;;;;;;6.9;4.2;;;;;;;;;;;;;
2020/03/08 00:40:46;;;;;;;6.5;4.3;;;;;;;;;;;;;
2020/03/08 00:43:11;;;;;;;6.9;4.6;;;;;;;;;;;;;
2020/03/08 00:45:36;;;;;;;6.6;4.4;;;;;;;;;;;;;
2020/03/08 00:48:01;;;;;;;6.2;4.5;;;;;;;;;;;;;
2020/03/08 00:50:27;;;;;;;7;5;;;;;;;;;;;;;
2020/03/08 00:52:52;;;;;;;7;4.5;;;;;;;;;;;;;
2020/03/08 00:55:17;;;;;;;6;4.4;;;;;;;;;;;;;
2020/03/08 00:57:42;;;;;;;5.6;4.2;;;;;;;;;;;;;
2020/03/08 01:00:07;;;;;;;7.4;4.7;;;;;;;;;;;;;
2020/03/08 01:02:32;;;;;;;6.3;4.3;;;;;;;;;;;;;
2020/03/08 01:04:57;;;;;;;7;4.3;;;;;;;;;;;;;
2020/03/08 01:07:22;;;;;;;7.4;4.7;;;;;;;;;;;;;
2020/03/08 01:09:47;;;;;;;9.6;4.6;;;;;;;;;;;;;
2020/03/08 01:12:12;;;;;;;7.6;4.5;;;;;;;;;;;;;
2020/03/08 01:14:38;;;;;;;7.4;4.4;;;;;;;;;;;;;
2020/03/08 01:17:03;;;;;;;6.5;4.5;;;;;;;;;;;;;
2020/03/08 01:19:28;;;;;;;8.4;4.8;;;;;;;;;;;;;
2020/03/08 01:21:53;;;;;;;6.2;4.7;;;;;;;;;;;;;
2020/03/08 01:24:18;;;;;;;6.7;4.5;;;;;;;;;;;;;
2020/03/08 01:26:43;;;;;;;7.2;4.7;;;;;;;;;;;;;
2020/03/08 01:29:08;;;;;;;8.3;4.5;;;;;;;;;;;;;
2020/03/08 01:31:33;;;;;;;6.3;4;;;;;;;;;;;;;
2020/03/08 01:33:58;;;;;;;6;4.2;;;;;;;;;;;;;
2020/03/08 01:36:23;;;;;;;7.6;4.7;;;;;;;;;;;;;
2020/03/08 01:38:48;;;;;;;5.6;4.4;;;;;;;;;;;;;
2020/03/08 01:41:14;;;;;;;6.5;4.5;;;;;;;;;;;;;
2020/03/08 01:43:39;;;;;;;7.3;4.5;;;;;;;;;;;;;
2020/03/08 01:46:04;;;;;;;7.1;4.4;;;;;;;;;;;;;
2020/03/08 01:48:29;;;;;;;6.5;4.6;;;;;;;;;;;;;
2020/03/08 01:50:54;;;;;;;6.6;4.2;;;;;;;;;;;;;
2020/03/08 01:53:19;;;;;;;8.1;4.3;;;;;;;;;;;;;
2020/03/08 01:55:44;;;;;;;7.2;4.4;;;;;;;;;;;;;
2020/03/08 01:58:09;;;;;;;6.1;4;;;;;;;;;;;;;
2020/03/08 02:00:34;;;;;;;6.3;4.5;;;;;;;;;;;;;
2020/03/08 02:02:59;;;;;;;7;4.3;;;;;;;;;;;;;
2020/03/08 02:05:25;;;;;;;6.2;4.3;;;;;;;;;;;;;
2020/03/08 02:07:50;;;;;;;7;4.4;;;;;;;;;;;;;
2020/03/08 02:10:15;;;;;;;7;4.5;;;;;;;;;;;;;
2020/03/08 02:12:40;;;;;;;6.9;4.3;;;;;;;;;;;;;
2020/03/08 02:15:05;;;;;;;7.3;4.3;;;;;;;;;;;;;
2020/03/08 02:17:30;;;;;;;5.2;4.3;;;;;;;;;;;;;
2020/03/08 02:19:55;;;;;;;7.2;4.1;;;;;;;;;;;;;
2020/03/08 02:22:21;;;;;;;7;4.2;;;;;;;;;;;;;
2020/03/08 02:24:47;;;;;;;6.7;4.4;;;;;;;;;;;;;
2020/03/08 02:27:11;;;;;;;6.2;4.5;;;;;;;;;;;;;
2020/03/08 02:29:36;;;;;;;6.6;4.1;;;;;;;;;;;;;
2020/03/08 02:32:01;;;;;;;6.2;4.2;;;;;;;;;;;;;
2020/03/08 02:34:26;;;;;;;6.8;4.5;;;;;;;;;;;;;
2020/03/08 02:36:51;;;;;;;6.7;4.5;;;;;;;;;;;;;
2020/03/08 02:39:16;;;;;;;7.6;4.4;;;;;;;;;;;;;
2020/03/08 02:41:41;;;;;;;7.2;4.5;;;;;;;;;;;;;
2020/03/08 02:44:06;;;;;;;7.9;4.5;;;;;;;;;;;;;
2020/03/08 02:46:31;;;;;;;6.2;4.4;;;;;;;;;;;;;
2020/03/08 02:48:57;;;;;;;8.1;4.6;;;;;;;;;;;;;
2020/03/08 02:51:22;;;;;;;6.8;4.4;;;;;;;;;;;;;
2020/03/08 02:53:47;;;;;;;7.7;5;;;;;;;;;;;;;
2020/03/08 02:56:12;;;;;;;6.1;4.4;;;;;;;;;;;;;
2020/03/08 02:58:37;;;;;;;7.5;4.6;;;;;;;;;;;;;
2020/03/08 03:01:02;;;;;;;6.2;4.6;;;;;;;;;;;;;
2020/03/08 03:03:27;;;;;;;6.3;4.7;;;;;;;;;;;;;
2020/03/08 03:05:52;;;;;;;7.3;4.7;;;;;;;;;;;;;
2020/03/08 03:08:17;;;;;;;7.3;4.6;;;;;;;;;;;;;
2020/03/08 03:10:42;;;;;;;7.5;5.1;;;;;;;;;;;;;
2020/03/08 03:13:07;;;;;;;6.9;4.9;;;;;;;;;;;;;
2020/03/08 03:15:32;;;;;;;7.5;4.6;;;;;;;;;;;;;
2020/03/08 03:17:58;;;;;;;7.3;4.7;;;;;;;;;;;;;
2020/03/08 03:20:23;;;;;;;6.5;4.4;;;;;;;;;;;;;
2020/03/08 03:22:48;;;;;;;8;4.7;;;;;;;;;;;;;
2020/03/08 03:25:13;;;;;;;7.1;4.4;;;;;;;;;;;;;
2020/03/08 03:27:38;;;;;;;8.1;4.7;;;;;;;;;;;;;
2020/03/08 03:30:03;;;;;;;6.7;4.6;;;;;;;;;;;;;
2020/03/08 03:32:32;;;;;;;7.7;5;;;;;;;;;;;;;
2020/03/08 03:34:53;;;;;;;6.8;4.7;;;;;;;;;;;;;
2020/03/08 03:37:18;;;;;;;8.4;4.7;;;;;;;;;;;;;
2020/03/08 03:39:43;;;;;;;7.5;4.5;;;;;;;;;;;;;
2020/03/08 03:42:09;;;;;;;7.1;4.6;;;;;;;;;;;;;
2020/03/08 03:44:34;;;;;;;7.9;4.8;;;;;;;;;;;;;
2020/03/08 03:46:59;;;;;;;7;4.8;;;;;;;;;;;;;
2020/03/08 03:49:24;;;;;;;6;4.4;;;;;;;;;;;;;
2020/03/08 03:51:49;;;;;;;6.3;4.4;;;;;;;;;;;;;
2020/03/08 03:54:14;;;;;;;7.1;4.5;;;;;;;;;;;;;
2020/03/08 03:56:39;;;;;;;6.5;4.4;;;;;;;;;;;;;
2020/03/08 03:59:04;;;;;;;6.4;4.3;;;;;;;;;;;;;
2020/03/08 04:02:27;;;;;;;5.7;4.3;;;;;;;5.96;71.1543;1007.12;;;;
2020/03/08 04:04:52;;;;;;;7.4;4.2;;;;;;;5.85;71.16895;1007.095;;;;
2020/03/08 04:07:17;;;;;;;6.3;4.1;;;;;;;5.84;71.51953;1007.052;;;;
2020/03/08 04:09:42;;;;;;;7.6;4.6;;;;;;;5.81;71.28613;1007.046;;;;
2020/03/08 04:12:07;;;;;;;6.5;4.1;;;;;;;5.86;70.62793;1007.124;;;;
2020/03/08 04:14:33;;;;;;;8.4;4.4;;;;;;;5.95;70.12207;1007.076;;;;
2020/03/08 04:16:58;;;;;;;6.7;4.1;;;;;;;5.91;70.5791;1007.021;;;;
2020/03/08 04:19:23;;;;;;;5.5;4;;;;;;;5.97;70.41992;1007.04;;;;
2020/03/08 04:21:48;;;;;;;5.6;4.2;;;;;;;5.83;71.15625;1007.049;;;;
2020/03/08 04:24:13;;;;;;;5.8;4.2;;;;;;;5.98;70.5;1007.057;;;;
2020/03/08 04:26:38;;;;;;;6.6;4;;;;;;;5.99;69.62793;1006.967;;;;
2020/03/08 04:29:03;;;;;;;7.2;4.4;;;;;;;6.01;69.8252;1006.966;;;;
2020/03/08 04:31:28;;;;;;;6.4;4.1;;;;;;;6.03;69.62598;1006.967;;;;
2020/03/08 04:33:53;;;;;;;7.1;4.2;;;;;;;6.02;70.06641;1006.983;;;;
2020/03/08 04:36:18;;;;;;;6.7;4.1;;;;;;;5.97;70.01074;1006.939;;;;
2020/03/08 04:38:43;;;;;;;6.3;4.1;;;;;;;5.98;69.93359;1006.936;;;;
2020/03/08 04:41:09;;;;;;;7.9;4.4;;;;;;;6.01;69.89355;1006.907;;;;
2020/03/08 04:43:34;;;;;;;7.3;4;;;;;;;6.02;69.94043;1006.876;;;;
2020/03/08 04:46:00;;;;;;;5.7;4.2;;;;;;;6.04;69.96582;1006.828;;;;
2020/03/08 04:48:24;;;;;;;5.7;3.9;;;;;;;5.97;70.10059;1006.81;;;;
2020/03/08 04:50:49;;;;;;;7.7;4.2;;;;;;;5.97;70.15918;1006.862;;;;
2020/03/08 04:53:14;;;;;;;5.8;3.9;;;;;;;6.1;69.72656;1006.83;;;;
2020/03/08 04:55:39;;;;;;;7;4;;;;;;;6.13;69.42676;1006.873;;;;
2020/03/08 04:58:04;;;;;;;5.7;3.8;;;;;;;6.19;69.03906;1006.855;;;;
2020/03/08 05:00:29;;;;;;;6.9;3.9;;;;;;;6.09;69.35156;1006.857;;;;
2020/03/08 05:02:54;;;;;;;7.4;4.1;;;;;;;6.18;69.18457;1006.858;;;;
2020/03/08 05:05:20;;;;;;;5.7;3.9;;;;;;;6.21;68.78223;1006.819;;;;
2020/03/08 05:07:45;;;;;;;5.9;3.9;;;;;;;6.08;69.2832;1006.782;;;;
2020/03/08 05:10:10;;;;;;;5.9;3.9;;;;;;;6.04;69.5127;1006.85;;;;
2020/03/08 05:12:35;;;;;;;6.8;3.9;;;;;;;6.02;69.73633;1006.843;;;;
2020/03/08 05:15:00;;;;;;;7.1;3.9;;;;;;;6.08;69.02246;1006.838;;;;
2020/03/08 05:17:25;;;;;;;5.7;3.6;;;;;;;6.16;68.96582;1006.83;;;;
2020/03/08 05:19:50;;;;;;;7.1;3.8;;;;;;;6.17;69.39648;1006.863;;;;
2020/03/08 05:22:15;;;;;;;5.6;3.6;;;;;;;6.19;68.93848;1006.863;;;;
2020/03/08 05:24:40;;;;;;;5.4;3.7;;;;;;;6.21;68.55566;1006.837;;;;
2020/03/08 05:27:06;;;;;;;6.2;3.4;;;;;;;6.21;68.66797;1006.838;;;;
2020/03/08 05:29:31;;;;;;;7.8;3.7;;;;;;;6.25;68.64063;1006.792;;;;
2020/03/08 05:31:56;;;;;;;6.7;3.7;;;;;;;6.31;68.40137;1006.8;;;;
2020/03/08 05:34:21;;;;;;;6.3;3.6;;;;;;;6.19;68.75488;1006.843;;;;
2020/03/08 05:36:46;;;;;;;5.5;3.7;;;;;;;6.38;68.41113;1006.868;;;;
2020/03/08 05:39:11;;;;;;;5.8;3.6;;;;;;;6.33;67.69043;1006.794;;;;
2020/03/08 05:41:36;;;;;;;5.9;3.3;;;;;;;6.34;67.75977;1006.814;;;;
2020/03/08 05:44:01;;;;;;;5.5;3.2;;;;;;;6.45;67.50488;1006.804;;;;
2020/03/08 05:46:26;;;;;;;5.7;3.3;;;;;;;6.37;67.04004;1006.833;;;;
2020/03/08 05:48:51;;;;;;;4.5;3.3;;;;;;;6.38;67.37988;1006.829;;;;
2020/03/08 05:51:17;;;;;;;4.5;3.1;;;;;;;6.35;67.03516;1006.845;;;;
2020/03/08 05:53:42;;;;;;;5;3.2;;;;;;;6.39;66.90527;1006.833;;;;
2020/03/08 05:56:07;;;;;;;5.4;3.3;;;;;;;6.38;66.7793;1006.834;;;;
2020/03/08 05:58:32;;;;;;;5;3;;;;;;;6.52;66.50684;1006.77;;;;
2020/03/08 06:00:57;;;;;;;5.9;3.2;;;;;;;6.44;66.49414;1006.742;;;;
2020/03/08 06:03:22;;;;;;;6.5;3.2;;;;;;;6.43;65.93652;1006.752;;;;
2020/03/08 06:05:47;;;;;;;6.5;3.2;;;;;;;6.53;65.93945;1006.754;;;;
2020/03/08 06:08:13;;;;;;;5.5;3.2;;;;;;;6.57;65.19922;1006.786;;;;
2020/03/08 06:10:38;;;;;;;5.2;3.1;;;;;;;6.49;65.64063;1006.799;;;;
2020/03/08 06:13:03;;;;;;;5.8;3;;;;;;;6.53;65.28125;1006.702;;;;
2020/03/08 06:15:28;;;;;;;4.8;2.9;;;;;;;6.63;64.75391;1006.693;;;;
2020/03/08 06:17:53;;;;;;;5.7;2.9;;;;;;;6.7;64.73047;1006.691;;;;
2020/03/08 06:20:18;;;;;;;5.1;3.2;;;;;;;6.65;64.56445;1006.683;;;;
2020/03/08 06:22:43;;;;;;;4.8;3.3;;;;;;;6.64;64.58594;1006.689;;;;
2020/03/08 06:25:08;;;;;;;7.1;3.1;;;;;;;6.9;64.03516;1006.739;;;;
2020/03/08 06:27:33;;;;;;;4.3;3;;;;;;;6.81;63.44141;1006.724;;;;
2020/03/08 06:29:58;;;;;;;5.6;3;;;;;;;6.92;63.06152;1006.691;;;;
2020/03/08 06:32:23;;;;;;;5.6;2.9;;;;;;;6.86;62.78027;1006.671;;;;
2020/03/08 06:34:49;;;;;;;4.3;2.7;;;;;;;6.85;63.10742;1006.69;;;;
2020/03/08 06:37:14;;;;;;;5.2;2.8;;;;;;;6.97;62.59277;1006.713;;;;
2020/03/08 06:39:39;;;;;;;5.2;3;;;;;;;6.9;62.6377;1006.707;;;;
2020/03/08 06:42:04;;;;;;;4.8;2.9;;;;;;;6.98;62.28613;1006.688;;;;
2020/03/08 06:44:30;;;;;;;4.7;2.8;;;;;;;7.01;62.33691;1006.691;;;;
2020/03/08 06:46:55;;;;;;;5.2;2.7;;;;;;;7.2;61.85352;1006.655;;;;
2020/03/08 06:49:20;;;;;;;4.2;2.6;;;;;;;7.27;61.29395;1006.674;;;;
2020/03/08 06:51:45;;;;;;;3.8;2.6;;;;;;;7.31;60.67578;1006.716;;;;
2020/03/08 06:54:10;;;;;;;5.1;2.8;;;;;;;7.46;60.51563;1006.751;;;;
2020/03/08 06:56:35;;;;;;;7;3.2;;;;;;;7.28;60.97852;1006.76;;;;
2020/03/08 06:59:01;;;;;;;7.9;2.9;;;;;;;7.29;60.68457;1006.672;;;;
2020/03/08 07:01:26;;;;;;;5.9;2.8;;;;;;;7.28;60.625;1006.713;;;;
2020/03/08 07:03:51;;;;;;;6.7;3.1;;;;;;;7.41;59.93945;1006.676;;;;
2020/03/08 07:06:16;;;;;;;4.8;2.6;;;;;;;7.5;60.30469;1006.72;;;;
2020/03/08 07:08:41;;;;;;;4.9;2.7;;;;;;;7.73;59.25586;1006.631;;;;
2020/03/08 07:11:06;;;;;;;3.7;2.3;;;;;;;7.99;58.6084;1006.659;;;;
2020/03/08 07:13:31;;;;;;;5.8;2.7;;;;;;;7.88;58.57129;1006.664;;;;
2020/03/08 07:15:57;;;;;;;5.2;2.6;;;;;;;8.08;58.09766;1006.597;;;;
2020/03/08 07:18:22;;;;;;;4.4;2.4;;;;;;;8.1;57.95313;1006.592;;;;
2020/03/08 07:20:47;;;;;;;5.8;2.7;;;;;;;8.43;56.55078;1006.552;;;;
2020/03/08 07:23:12;;;;;;;5.4;2.6;;;;;;;8.8;55.25391;1006.603;;;;
2020/03/08 07:25:37;;;;;;;4;2.4;;;;;;;9.49;53.25195;1006.57;;;;
2020/03/08 07:28:02;;;;;;;4.4;2.5;;;;;;;9.37;52.78125;1006.554;;;;
2020/03/08 07:30:27;;;;;;;4.7;2.4;;;;;;;9.03;53.64063;1006.627;;;;
2020/03/08 07:32:52;;;;;;;4.1;2.8;;;;;;;8.68;55.12402;1006.618;;;;
2020/03/08 07:35:18;;;;;;;4.9;2.5;;;;;;;8.45;56.16504;1006.629;;;;
2020/03/08 07:37:43;;;;;;;3.8;2.2;;;;;;;8.76;55.13477;1006.668;;;;
2020/03/08 07:40:08;;;;;;;4.3;2.5;;;;;;;8.99;54.76367;1006.654;;;;
2020/03/08 07:42:33;;;;;;;3.3;2.2;;;;;;;8.91;54.87891;1006.632;;;;
2020/03/08 07:44:58;;;;;;;3.7;2.3;;;;;;;8.63;55.08398;1006.659;;;;
2020/03/08 07:47:23;;;;;;;4.5;2.2;;;;;;;8.85;54.70215;1006.689;;;;
2020/03/08 07:49:48;;;;;;;5.8;2.5;;;;;;;8.77;54.68066;1006.67;;;;
2020/03/08 07:52:13;;;;;;;5.9;2.4;;;;;;;8.89;54.125;1006.672;;;;
2020/03/08 07:54:39;;;;;;;4.7;2.5;;;;;;;9.11;53.88965;1006.671;;;;
2020/03/08 07:57:04;;;;;;;5.7;2.5;;;;;;;8.64;54.69727;1006.719;;;;
2020/03/08 07:59:29;;;;;;;4.2;2.4;;;;;;;8.68;55.26074;1006.707;;;;
2020/03/08 08:01:54;;;;;;;4.4;2.4;;;;;;;9.02;54.2666;1006.693;;;;
2020/03/08 08:04:19;;;;;;;4.6;2.5;;;;;;;9.41;53.37988;1006.695;;;;
2020/03/08 08:06:44;;;;;;;4.2;2.6;;;;;;;9.7;52.66211;1006.717;;;;
2020/03/08 08:09:09;;;;;;;4.1;2.4;;;;;;;9.62;51.68066;1006.696;;;;
2020/03/08 08:11:34;;;;;;;4.9;2.4;;;;;;;9.62;52.125;1006.637;;;;
2020/03/08 08:13:59;;;;;;;4;2.5;;;;;;;9.75;52.25586;1006.668;;;;
2020/03/08 08:16:25;;;;;;;4.7;2.3;;;;;;;10.04;51.58203;1006.666;;;;
2020/03/08 08:18:50;;;;;;;4;2.4;;;;;;;9.88;51.55176;1006.679;;;;
2020/03/08 08:21:15;;;;;;;4.5;2.3;;;;;;;9.93;51.68359;1006.725;;;;
2020/03/08 08:23:40;;;;;;;6.2;2.4;;;;;;;9.78;51.97363;1006.725;;;;
2020/03/08 08:26:05;;;;;;;3.3;2.1;;;;;;;9.8;51.93066;1006.724;;;;
2020/03/08 08:28:30;;;;;;;5.9;2.7;;;;;;;9.77;51.40137;1006.799;;;;
2020/03/08 08:30:55;;;;;;;5.5;2.3;;;;;;;9.87;51.97266;1006.768;;;;
2020/03/08 08:33:20;;;;;;;3.7;2.1;;;;;;;10.12;51.07617;1006.756;;;;
2020/03/08 08:35:45;;;;;;;4.3;2.4;;;;;;;10.51;50.17285;1006.74;;;;
2020/03/08 08:38:11;;;;;;;5.4;2.5;;;;;;;10.03;50.67773;1006.702;;;;
2020/03/08 08:40:36;;;;;;;4.3;2.3;;;;;;;9.89;50.85449;1006.711;;;;
2020/03/08 08:43:01;;;;;;;4.1;2.4;;;;;;;10.14;50.33594;1006.735;;;;
2020/03/08 08:45:26;;;;;;;3.7;2.1;;;;;;;10.63;50.18652;1006.672;;;;
2020/03/08 08:47:51;;;;;;;3.2;2.2;;;;;;;10.17;49.89258;1006.624;;;;
2020/03/08 08:50:16;;;;;;;4.8;2.2;;;;;;;10.43;48.8252;1006.615;;;;
2020/03/08 08:52:41;;;;;;;5.9;2.4;;;;;;;10.59;49.49512;1006.637;;;;
2020/03/08 08:55:06;;;;;;;3.2;2.2;;;;;;;10.77;49.0918;1006.592;;;;
2020/03/08 08:57:32;;;;;;;3.6;2;;;;;;;10.94;47.66602;1006.668;;;;
2020/03/08 08:59:57;;;;;;;5;2.1;;;;;;;10.67;48.01563;1006.633;;;;
2020/03/08 09:02:22;;;;;;;5.8;2.4;;;;;;;10.46;48.67871;1006.631;;;;
2020/03/08 09:04:47;;;;;;;3.8;2.2;;;;;;;10.4;48.41992;1006.644;;;;
2020/03/08 09:07:12;;;;;;;3.9;2.1;;;;;;;10.67;48.20996;1006.556;;;;
2020/03/08 09:09:37;;;;;;;3.7;2.2;;;;;;;10.99;48.30273;1006.608;;;;
2020/03/08 09:12:02;;;;;;;3;2;;;;;;;10.9;47.53613;1006.627;;;;
2020/03/08 09:14:27;;;;;;;3.9;2.3;;;;;;;10.87;47.05273;1006.629;;;;
2020/03/08 09:16:53;;;;;;;5.8;2.2;;;;;;;11.15;46.68164;1006.545;;;;
2020/03/08 09:19:18;;;;;;;4.7;2.4;;;;;;;10.73;47.96484;1006.487;;;;
2020/03/08 09:21:43;;;;;;;5.5;2.5;;;;;;;10.95;47.93164;1006.449;;;;
2020/03/08 09:24:08;;;;;;;3.6;2.3;;;;;;;10.72;47.97559;1006.459;;;;
2020/03/08 09:26:33;;;;;;;5.9;2.3;;;;;;;10.59;47.58301;1006.405;;;;
2020/03/08 09:28:58;;;;;;;4.6;2.1;;;;;;;10.8;47.75488;1006.405;;;;
2020/03/08 09:31:23;;;;;;;4.3;2.3;;;;;;;10.67;48.39355;1006.361;;;;
2020/03/08 09:33:48;;;;;;;4.4;2.2;;;;;;;10.78;47.94727;1006.39;;;;
2020/03/08 09:36:13;;;;;;;4;2.3;;;;;;;10.91;47.65234;1006.329;;;;
2020/03/08 09:38:38;;;;;;;4.6;2.3;;;;;;;10.88;48.31348;1006.357;;;;
2020/03/08 09:41:03;;;;;;;4.4;2.4;;;;;;;11.06;47.25586;1006.36;;;;
2020/03/08 09:43:28;;;;;;;6.5;3.8;;;;;;;10.91;47.25098;1006.326;;;;
2020/03/08 09:45:53;;;;;;;4.6;2.9;;;;;;;10.97;47.625;1006.317;;;;
2020/03/08 09:48:19;;;;;;;3.8;2.4;;;;;;;10.55;48.09375;1006.32;;;;
2020/03/08 09:50:44;;;;;;;4.3;2.4;;;;;;;10.52;48.33008;1006.367;;;;
2020/03/08 09:53:09;;;;;;;3.7;2.2;;;;;;;10.45;49.33105;1006.384;;;;
2020/03/08 09:55:34;;;;;;;4;2.1;;;;;;;10.58;48.69238;1006.443;;;;
2020/03/08 09:57:59;;;;;;;4.2;2.2;;;;;;;10.8;47.49219;1006.315;;;;
2020/03/08 10:00:24;;;;;;;4.2;2.2;;;;;;;10.42;48.05664;1006.257;;;;
2020/03/08 10:02:49;;;;;;;4.4;2;;;;;;;10.48;48.85352;1006.207;;;;
2020/03/08 10:05:14;;;;;;;3.9;2;;;;;;;11.02;48.06543;1006.175;;;;
2020/03/08 10:07:40;;;;;;;3.7;2.1;;;;;;;11.16;46.84277;1006.235;;;;
2020/03/08 10:10:05;;;;;;;4.6;2.2;;;;;;;11.55;46.04785;1006.147;;;;
2020/03/08 10:12:30;;;;;;;4;2;;;;;;;11.44;46.41504;1006.129;;;;
2020/03/08 10:14:55;;;;;;;2.6;1.9;;;;;;;11.64;46.34375;1006.08;;;;
2020/03/08 10:17:20;;;;;;;3;1.9;;;;;;;11.42;46.79102;1006.053;;;;
2020/03/08 10:19:45;;;;;;;2.7;2;;;;;;;11.8;45.68359;1005.955;;;;
2020/03/08 10:22:11;;;;;;;3.1;2;;;;;;;12.11;45.40625;1005.981;;;;
2020/03/08 10:24:36;;;;;;;2.8;1.8;;;;;;;12.75;44.64551;1005.982;;;;
2020/03/08 10:27:02;;;;;;;4.6;2.1;;;;;;;12.97;44.0459;1005.886;;;;
2020/03/08 10:29:27;;;;;;;4.7;2.1;;;;;;;12.77;44.08301;1005.821;;;;
2020/03/08 10:31:52;;;;;;;3.4;1.9;;;;;;;12.81;42.93555;1005.794;;;;
2020/03/08 10:34:17;;;;;;;4.9;2.2;;;;;;;12.53;43.71387;1005.758;;;;
2020/03/08 10:36:42;;;;;;;3.6;2;;;;;;;12.26;44.29492;1005.747;;;;
2020/03/08 10:39:07;;;;;;;3.9;2;;;;;;;13.08;43.35449;1005.718;;;;
2020/03/08 10:41:33;;;;;;;4.2;1.9;;;;;;;12.51;43.74609;1005.706;;;;
2020/03/08 10:43:58;;;;;;;3.6;1.9;;;;;;;12.74;43.40137;1005.573;;;;
2020/03/08 10:46:23;;;;;;;4;2.1;;;;;;;12.72;43.57129;1005.571;;;;
2020/03/08 10:48:48;;;;;;;5;2.1;;;;;;;12.94;43.73242;1005.575;;;;
2020/03/08 10:51:13;;;;;;;3.1;1.9;;;;;;;13.16;42.81055;1005.408;;;;
2020/03/08 10:53:39;;;;;;;4;2.1;;;;;;;13.15;43.2334;1005.377;;;;
2020/03/08 10:56:04;;;;;;;2.8;2;;;;;;;13.01;42.79492;1005.434;;;;
2020/03/08 10:58:29;;;;;;;4.2;1.8;;;;;;;13.11;42.78223;1005.415;;;;
2020/03/08 11:00:54;;;;;;;5;2.1;;;;;;;13.46;41.92871;1005.283;;;;
2020/03/08 11:03:19;;;;;;;3.7;2;;;;;;;13.52;42.28125;1005.288;;;;
2020/03/08 11:05:45;;;;;;;3.5;1.9;;;;;;;13.26;42.87695;1005.269;;;;
2020/03/08 11:08:10;;;;;;;3.4;1.9;;;;;;;13.86;42.99414;1005.147;;;;
2020/03/08 11:10:35;;;;;;;3.7;2.1;;;;;;;14.01;41.88965;1005.091;;;;
2020/03/08 11:13:00;;;;;;;3.7;1.8;;;;;;;13.89;42.1543;1005.019;;;;
2020/03/08 11:15:25;;;;;;;3;1.6;;;;;;;13.44;43.48242;1004.967;;;;
2020/03/08 11:17:51;;;;;;;3.2;1.7;;;;;;;13.5;43.64941;1004.938;;;;
2020/03/08 11:20:16;;;;;;;2.8;1.6;;;;;;;14.19;42.29883;1004.89;;;;
2020/03/08 11:22:41;;;;;;;3;1.7;;;;;;;13.89;43.30762;1004.839;;;;
2020/03/08 11:25:06;;;;;;;3.4;1.8;;;;;;;14.21;43.23633;1004.755;;;;
2020/03/08 11:27:31;;;;;;;2.8;1.7;;;;;;;14.11;43.24902;1004.757;;;;
2020/03/08 11:29:56;;;;;;;2.8;1.6;;;;;;;14.43;42.49512;1004.679;;;;
2020/03/08 11:32:21;;;;;;;3.4;1.6;;;;;;;13.94;43.40527;1004.627;;;;
2020/03/08 11:34:47;;;;;;;2.9;1.6;;;;;;;13.78;44.17383;1004.612;;;;
2020/03/08 11:37:12;;;;;;;4.6;1.5;;;;;;;13.51;45.4375;1004.499;;;;
2020/03/08 11:39:37;;;;;;;2.7;1.6;;;;;;;13.39;45.66602;1004.481;;;;
2020/03/08 11:42:02;;;;;;;5;1.9;;;;;;;13.11;46.52441;1004.333;;;;
2020/03/08 11:44:27;;;;;;;2.7;1.4;;;;;;;13.28;47.00293;1004.349;;;;
2020/03/08 11:46:52;;;;;;;2.4;1.4;;;;;;;13.28;46.17383;1004.382;;;;
2020/03/08 11:49:18;;;;;;;2.8;1.4;;;;;;;13.6;46.85449;1004.358;;;;
2020/03/08 11:51:43;;;;;;;2.9;1.7;;;;;;;13.38;46.33398;1004.342;;;;
2020/03/08 11:54:08;;;;;;;2;1.4;;;;;;;13.44;46.58301;1004.261;;;;
2020/03/08 11:56:33;;;;;;;3.7;1.5;;;;;;;13.76;46.23633;1004.122;;;;
2020/03/08 11:58:58;;;;;;;1.9;1.5;;;;;;;13.68;45.79004;1004.146;;;;
2020/03/08 12:01:23;;;;;;;2.4;1.4;;;;;;;13.83;45.27539;1004.054;;;;
2020/03/08 12:03:49;;;;;;;2.2;1.4;;;;;;;14.42;44.53906;1004.057;;;;
2020/03/08 12:06:14;;;;;;;2.6;1.2;;;;;;;14.44;43.91797;1004.028;;;;
2020/03/08 12:08:42;;;;;;;3.3;1.4;;;;;;;14.34;44.16211;1003.971;;;;
2020/03/08 12:11:05;;;;;;;2.3;1.5;;;;;;;13.78;44.7168;1003.869;;;;
2020/03/08 12:13:30;;;;;;;2.9;1.5;;;;;;;13.84;45.37891;1003.827;;;;
2020/03/08 12:15:55;;;;;;;1.8;1.4;;;;;;;13.87;45.99414;1003.853;;;;
2020/03/08 12:18:20;;;;;;;2.3;1.4;;;;;;;13.42;46.33887;1003.76;;;;
2020/03/08 12:20:45;;;;;;;2.3;1.5;;;;;;;13.3;47.28223;1003.685;;;;
2020/03/08 12:23:10;;;;;;;2.9;1.5;;;;;;;13.33;46.9502;1003.658;;;;
2020/03/08 12:25:35;;;;;;;2.6;1.3;;;;;;;13.71;46.50781;1003.594;;;;
2020/03/08 12:28:00;;;;;;;2;1.2;;;;;;;13.6;47.13086;1003.516;;;;
2020/03/08 12:30:26;;;;;;;2.3;1.3;;;;;;;13.65;46.375;1003.424;;;;
2020/03/08 12:32:51;;;;;;;2.5;1.4;;;;;;;13.9;46.82715;1003.38;;;;
2020/03/08 12:35:16;;;;;;;1.6;1.2;;;;;;;13.97;45.69336;1003.336;;;;
2020/03/08 12:37:41;;;;;;;2.8;1.3;;;;;;;14.13;46.02051;1003.381;;;;
2020/03/08 12:40:06;;;;;;;2;1.3;;;;;;;14.2;45.05957;1003.35;;;;
2020/03/08 12:42:31;;;;;;;3.5;1.4;;;;;;;14.29;45.01074;1003.269;;;;
2020/03/08 12:44:56;;;;;;;2.2;1.3;;;;;;;14.24;44.69336;1003.141;;;;
2020/03/08 12:47:22;;;;;;;2.9;1.3;;;;;;;13.61;46.09375;1003.058;;;;
2020/03/08 12:49:47;;;;;;;2;1.2;;;;;;;13.68;46.05469;1003.068;;;;
2020/03/08 12:52:12;;;;;;;2.3;1.3;;;;;;;13.91;46.20605;1003.134;;;;
2020/03/08 12:54:37;;;;;;;2.5;1.4;;;;;;;13.88;45.77539;1003.123;;;;
2020/03/08 12:57:02;;;;;;;1.8;1.2;;;;;;;14.1;45.5332;1003.057;;;;
2020/03/08 12:59:27;;;;;;;3.2;1.3;;;;;;;13.99;46.64063;1003.083;;;;
2020/03/08 13:01:52;;;;;;;2.9;1.5;;;;;;;14.22;45.40723;1002.983;;;;
2020/03/08 13:04:17;;;;;;;2.7;1.3;;;;;;;14.36;45.97559;1002.996;;;;
2020/03/08 13:06:43;;;;;;;2.3;1.4;;;;;;;14.15;45.79297;1002.948;;;;
2020/03/08 13:09:08;;;;;;;2.1;1.5;;;;;;;13.85;46.31543;1002.967;;;;
2020/03/08 13:11:33;;;;;;;2.8;1.5;;;;;;;14.26;45.83984;1002.921;;;;
2020/03/08 13:13:58;;;;;;;3.1;1.5;;;;;;;14.53;45.30078;1002.829;;;;
2020/03/08 13:16:23;;;;;;;2.7;1.6;;;;;;;14.23;45.93945;1002.825;;;;
2020/03/08 13:18:48;;;;;;;2.1;1.3;;;;;;;14.36;45.89648;1002.786;;;;
2020/03/08 13:21:13;;;;;;;2.7;1.5;;;;;;;14.3;46.7207;1002.852;;;;
2020/03/08 13:23:38;;;;;;;2.7;1.5;;;;;;;14.25;46.65723;1002.738;;;;
2020/03/08 13:26:03;;;;;;;2.1;1.4;;;;;;;14.27;46.50977;1002.75;;;;
2020/03/08 13:28:28;;;;;;;2.9;1.2;;;;;;;14.32;46.91895;1002.707;;;;
2020/03/08 13:30:53;;;;;;;2.2;1.3;;;;;;;14.53;46.28418;1002.628;;;;
2020/03/08 13:33:19;;;;;;;3.3;1.5;;;;;;;14.55;46.48242;1002.573;;;;
2020/03/08 13:35:44;;;;;;;3.1;1.3;;;;;;;14.52;45.88965;1002.53;;;;
2020/03/08 13:38:09;;;;;;;1.6;1.3;;;;;;;14.08;47.35547;1002.616;;;;
2020/03/08 13:40:34;;;;;;;2.8;1.2;;;;;;;14;47.19629;1002.563;;;;
2020/03/08 13:42:59;;;;;;;2.5;1.4;;;;;;;14.49;46.78809;1002.471;;;;
2020/03/08 13:45:24;;;;;;;2.1;1.5;;;;;;;14.45;47.05957;1002.398;;;;
2020/03/08 13:47:49;;;;;;;2.1;1.4;;;;;;;14.18;47.19238;1002.42;;;;
2020/03/08 13:50:14;;;;;;;2.1;1.5;;;;;;;14.32;47.13867;1002.294;;;;
2020/03/08 13:52:39;;;;;;;1.8;1.3;;;;;;;14.39;47.78125;1002.348;;;;
2020/03/08 13:55:05;;;;;;;2.8;1.2;;;;;;;14.38;47.19141;1002.314;;;;
2020/03/08 13:57:30;;;;;;;1.6;1.2;;;;;;;14.14;47.58105;1002.162;;;;
2020/03/08 13:59:55;;;;;;;1.8;1.2;;;;;;;14.25;47.76563;1002.124;;;;
2020/03/08 14:02:20;;;;;;;2.5;1.1;;;;;;;14.02;47.76367;1002.166;;;;
2020/03/08 14:04:45;;;;;;;1.5;1.1;;;;;;;14.13;47.69434;1002.054;;;;
2020/03/08 14:07:10;;;;;;;2.3;1.2;;;;;;;14.5;48.09375;1002.015;;;;
2020/03/08 14:09:35;;;;;;;2.1;1.1;;;;;;;14.25;47.63867;1001.98;;;;
2020/03/08 14:12:01;;;;;;;1.3;1;;;;;;;14.11;48.70898;1001.894;;;;
2020/03/08 14:14:26;;;;;;;1.5;1.1;;;;;;;14.35;47.92676;1001.889;;;;
2020/03/08 14:16:51;;;;;;;1.7;1.1;;;;;;;14.53;47.43945;1001.825;;;;
2020/03/08 14:19:16;;;;;;;1.4;1;;;;;;;14.47;47.80078;1001.794;;;;
2020/03/08 14:21:41;;;;;;;2.3;1;;;;;;;14.54;47.82031;1001.775;;;;
2020/03/08 14:24:06;;;;;;;1.5;1.1;;;;;;;14.79;47.1084;1001.763;;;;
2020/03/08 14:26:31;;;;;;;2.4;1.4;;;;;;;15.1;46.95703;1001.683;;;;
2020/03/08 14:28:56;;;;;;;2.2;1.5;;;;;;;15.37;46.26855;1001.616;;;;
2020/03/08 14:31:21;;;;;;;2.2;1.7;;;;;;;15.42;45.76465;1001.594;;;;
2020/03/08 14:33:46;;;;;;;2;1.5;;;;;;;15.12;46.2998;1001.544;;;;
2020/03/08 14:36:12;;;;;;;2.2;1.2;;;;;;;14.76;47.09375;1001.489;;;;
2020/03/08 14:38:37;;;;;;;2.6;1.2;;;;;;;14.49;47.16895;1001.46;;;;
2020/03/08 14:41:02;;;;;;;1.9;1.1;;;;;;;14.34;46.89941;1001.347;;;;
2020/03/08 14:43:27;;;;;;;2;1;;;;;;;14;48.28125;1001.303;;;;
2020/03/08 14:45:52;;;;;;;1.4;1.1;;;;;;;13.71;48.62891;1001.233;;;;
2020/03/08 14:48:17;;;;;;;1.5;1.1;;;;;;;13.61;48.89453;1001.168;;;;
2020/03/08 14:50:43;;;;;;;1.4;1.1;;;;;;;13.52;49.32422;1001.204;;;;
2020/03/08 14:53:08;;;;;;;2;1.1;;;;;;;13.45;49.22363;1001.116;;;;
2020/03/08 14:55:33;;;;;;;1.3;1.1;;;;;;;13.64;48.9668;1001.172;;;;
2020/03/08 14:57:58;;;;;;;1.8;1.1;;;;;;;13.57;49.64063;1001.145;;;;
2020/03/08 15:00:23;;;;;;;3.4;2.4;;;;;;;13.65;49.32617;1001.14;;;;
2020/03/08 15:02:48;;;;;;;1.9;1.2;;;;;;;13.72;49.71387;1001.138;;;;
2020/03/08 15:05:13;;;;;;;2.1;1.8;;;;;;;13.78;49.83691;1001.067;;;;
2020/03/08 15:07:39;;;;;;;2.5;1.9;;;;;;;13.71;50.15137;1001.042;;;;
2020/03/08 15:10:04;;;;;;;2;1.4;;;;;;;13.76;50.36523;1000.975;;;;
2020/03/08 15:12:29;;;;;;;2.7;1.9;;;;;;;13.86;49.71875;1000.982;;;;
2020/03/08 15:14:54;;;;;;;2.8;2.4;;;;;;;13.85;50.05273;1000.959;;;;
2020/03/08 15:17:19;;;;;;;2.7;1.4;;;;;;;13.81;50.2207;1001;;;;
2020/03/08 15:19:44;;;;;;;2.3;1.6;;;;;;;13.79;49.91992;1000.954;;;;
2020/03/08 15:22:09;;;;;;;2.7;1.8;;;;;;;13.94;49.93652;1000.926;;;;
2020/03/08 15:24:34;;;;;;;2.3;1.5;;;;;;;13.69;50.21875;1000.892;;;;
2020/03/08 15:26:59;;;;;;;3.2;1.3;;;;;;;13.64;50.51172;1000.846;;;;
2020/03/08 15:29:24;;;;;;;1.8;1.2;;;;;;;13.76;50.57324;1000.822;;;;
2020/03/08 15:31:50;;;;;;;1.6;1.2;;;;;;;13.77;49.72168;1000.748;;;;